Time;durP1;ratioP1;P1;durP2;ratioP2;P2;SDS_P1;SDS_P2;PMS_P1;PMS_P2;Temp;Humidity;BMP_temperature;BMP_pressure;BME280_temperature;BME280_humidity;BME280_pressure;Samples;Min_cycle;Max_cycle;Signal;HPM_P1;HPM_P2
2022/07/20 00:00:21;;;;;;;13.23;7.43;;;;;;;18.60;77.66;100367.50;4210415;28;20343;-74
2022/07/20 00:02:47;;;;;;;18.00;7.37;;;;;;;18.55;77.34;100369.97;4208837;28;20240;-74
2022/07/20 00:05:14;;;;;;;12.07;6.60;;;;;;;18.59;76.80;100367.69;4204312;28;22101;-74
2022/07/20 00:07:41;;;;;;;13.17;6.83;;;;;;;18.60;77.32;100364.81;4215038;28;20236;-72
2022/07/20 00:12:54;;;;;;;13.27;6.83;;;;;;;18.53;77.44;100372.84;4202759;28;20279;-72
2022/07/20 00:15:20;;;;;;;15.40;7.50;;;;;;;18.51;77.25;100364.13;4201106;28;20316;-74
2022/07/20 00:17:47;;;;;;;18.20;7.27;;;;;;;18.52;76.90;100368.50;4185999;28;20327;-75
2022/07/20 00:20:14;;;;;;;10.90;6.80;;;;;;;18.53;76.78;100372.84;4198096;28;20266;-74
2022/07/20 00:22:40;;;;;;;11.73;6.90;;;;;;;18.51;76.16;100374.91;4197095;28;20237;-73
2022/07/20 00:25:07;;;;;;;11.80;7.00;;;;;;;18.49;76.48;100374.28;4198146;28;21206;-73
2022/07/20 00:27:34;;;;;;;16.60;7.13;;;;;;;18.53;76.62;100378.25;4194658;28;20334;-74
2022/07/20 00:30:01;;;;;;;13.30;6.70;;;;;;;18.51;76.68;100377.59;4212637;28;20235;-73
2022/07/20 00:32:28;;;;;;;11.13;7.30;;;;;;;18.43;76.40;100388.56;4208676;28;20418;-73
2022/07/20 00:34:55;;;;;;;14.60;7.07;;;;;;;18.36;77.04;100382.28;4206559;28;20248;-73
2022/07/20 00:37:21;;;;;;;18.30;7.50;;;;;;;18.39;77.18;100378.38;4206663;28;20233;-74
2022/07/20 00:39:48;;;;;;;14.00;6.77;;;;;;;18.33;76.96;100380.84;4198615;28;20237;-75
2022/07/20 00:42:14;;;;;;;12.20;6.27;;;;;;;18.37;76.83;100380.44;4197563;28;20252;-72
2022/07/20 00:44:41;;;;;;;13.40;7.40;;;;;;;18.38;76.88;100380.25;4202050;28;21804;-73
2022/07/20 00:47:07;;;;;;;12.27;6.70;;;;;;;18.33;77.35;100382.66;4207455;28;21709;-75
2022/07/20 00:49:35;;;;;;;16.27;7.23;;;;;;;18.30;77.21;100383.06;4197424;28;20283;-73
2022/07/20 00:52:02;;;;;;;13.33;6.90;;;;;;;18.31;77.25;100379.38;4205866;28;20602;-73
2022/07/20 00:54:28;;;;;;;13.67;7.03;;;;;;;18.23;77.71;100376.81;4208273;28;20243;-74
2022/07/20 00:56:55;;;;;;;12.23;6.93;;;;;;;18.20;77.96;100382.59;4200466;28;20398;-73
2022/07/20 00:59:22;;;;;;;16.47;6.97;;;;;;;18.18;77.81;100380.09;4200990;28;20234;-74
2022/07/20 01:01:49;;;;;;;9.70;6.93;;;;;;;18.23;77.80;100387.59;4194622;28;20309;-73
2022/07/20 01:04:15;;;;;;;15.10;7.90;;;;;;;18.22;77.34;100392.16;4204192;28;20683;-72
2022/07/20 01:06:42;;;;;;;13.07;7.23;;;;;;;18.23;77.50;100390.28;4209552;28;20231;-74
2022/07/20 01:09:09;;;;;;;11.30;6.90;;;;;;;18.19;77.46;100392.53;4195488;28;20229;-74
2022/07/20 01:11:35;;;;;;;12.23;7.20;;;;;;;18.11;78.37;100398.88;4227987;28;20229;-75
2022/07/20 01:14:04;;;;;;;14.27;7.70;;;;;;;18.09;78.90;100403.63;4218818;28;25815;-75
2022/07/20 01:16:31;;;;;;;12.53;7.03;;;;;;;18.04;79.39;100398.00;4197191;28;20431;-73
2022/07/20 01:18:58;;;;;;;13.33;7.83;;;;;;;18.02;79.78;100401.91;4206572;28;20777;-73
2022/07/20 01:21:25;;;;;;;13.87;7.37;;;;;;;18.04;79.93;100395.31;4209165;28;20235;-73
2022/07/20 01:23:52;;;;;;;16.30;8.00;;;;;;;17.97;80.41;100405.19;4210876;28;20278;-73
2022/07/20 01:26:19;;;;;;;13.93;8.13;;;;;;;17.91;80.67;100396.03;4191705;28;21157;-75
2022/07/20 01:28:46;;;;;;;12.87;7.40;;;;;;;17.86;80.97;100401.19;4199492;28;20237;-74
2022/07/20 01:31:13;;;;;;;16.43;8.17;;;;;;;17.83;80.76;100398.84;4220144;28;20271;-74
2022/07/20 01:33:40;;;;;;;11.53;7.47;;;;;;;17.80;80.93;100401.09;4203315;28;21651;-73
2022/07/20 01:36:07;;;;;;;14.50;8.77;;;;;;;17.73;81.79;100401.84;4221757;28;20300;-74
2022/07/20 01:38:33;;;;;;;13.10;7.17;;;;;;;17.75;81.42;100403.50;4190711;28;22126;-74
2022/07/20 01:41:00;;;;;;;17.33;8.30;;;;;;;17.68;82.07;100396.22;4203818;28;20268;-73
2022/07/20 01:43:27;;;;;;;13.37;7.60;;;;;;;17.66;81.13;100398.25;4214051;28;20239;-74
2022/07/20 01:45:54;;;;;;;11.90;7.23;;;;;;;17.69;81.17;100402.44;4208776;28;20279;-76
2022/07/20 01:48:21;;;;;;;12.93;7.57;;;;;;;17.75;80.21;100400.81;4198614;28;21254;-75
2022/07/20 01:50:47;;;;;;;17.47;7.60;;;;;;;17.70;80.72;100404.09;4208989;28;20614;-73
2022/07/20 01:53:14;;;;;;;15.40;8.07;;;;;;;17.62;81.70;100402.34;4204439;28;20234;-73
2022/07/20 01:55:41;;;;;;;19.53;8.60;;;;;;;17.52;82.32;100408.06;4200533;28;20304;-73
2022/07/20 01:58:07;;;;;;;15.77;7.77;;;;;;;17.51;82.28;100405.53;4207272;28;20292;-76
2022/07/20 02:00:35;;;;;;;14.93;7.53;;;;;;;17.44;82.74;100399.25;4198284;28;23683;-74
2022/07/20 02:03:02;;;;;;;14.93;8.20;;;;;;;17.42;82.79;100394.09;4215252;28;21664;-74
2022/07/20 02:05:28;;;;;;;16.87;7.83;;;;;;;17.42;82.80;100395.94;4222681;28;20309;-73
2022/07/20 02:07:55;;;;;;;14.57;7.33;;;;;;;17.41;82.52;100389.72;4202061;28;24946;-75
2022/07/20 02:10:21;;;;;;;12.27;7.53;;;;;;;17.36;82.64;100402.09;4201251;28;22322;-74
2022/07/20 02:12:48;;;;;;;12.93;7.47;;;;;;;17.35;83.14;100392.34;4201560;28;20377;-73
2022/07/20 02:16:14;;;;;;;13.40;7.27;;;;;;;17.22;83.00;100396.56;4199095;28;20249;-73
2022/07/20 02:18:07;;;;;;;12.87;6.77;;;;;;;17.36;82.23;100388.63;4214682;28;21450;-72
2022/07/20 02:20:34;;;;;;;14.13;7.50;;;;;;;17.27;82.81;100394.13;4201812;28;20237;-73
2022/07/20 02:23:02;;;;;;;12.43;7.20;;;;;;;17.18;83.54;100399.81;4206605;28;21742;-74
2022/07/20 02:25:29;;;;;;;14.87;7.43;;;;;;;17.08;84.00;100402.81;4203166;28;20239;-72
2022/07/20 02:28:05;;;;;;;18.43;8.00;;;;;;;16.96;84.53;100402.44;4201991;28;22260;-75
2022/07/20 02:30:32;;;;;;;13.63;7.70;;;;;;;16.94;85.15;100409.88;4201179;28;25728;-75
2022/07/20 02:33:01;;;;;;;13.33;7.13;;;;;;;16.86;85.39;100408.13;4211338;28;20240;-75
2022/07/20 02:35:27;;;;;;;15.30;7.63;;;;;;;16.84;85.57;100406.63;4202417;28;21550;-75
2022/07/20 02:37:54;;;;;;;14.57;7.83;;;;;;;16.82;86.22;100408.69;4199846;28;22061;-74
2022/07/20 02:40:21;;;;;;;13.17;6.97;;;;;;;16.86;86.25;100413.50;4221960;28;20248;-73
2022/07/20 02:42:47;;;;;;;13.07;7.57;;;;;;;16.83;86.44;100407.63;4222330;28;21798;-76
2022/07/20 02:45:14;;;;;;;20.10;8.50;;;;;;;16.74;86.55;100414.09;4219605;28;20322;-73
2022/07/20 02:47:45;;;;;;;12.20;6.93;;;;;;;16.66;86.72;100417.72;4196927;28;20425;-73
2022/07/20 02:50:12;;;;;;;17.00;7.77;;;;;;;16.69;86.64;100422.72;4219977;28;21755;-75
2022/07/20 02:52:40;;;;;;;14.43;7.00;;;;;;;16.75;86.33;100421.16;4215269;28;25612;-74
2022/07/20 02:55:08;;;;;;;12.33;6.67;;;;;;;16.88;85.84;100418.69;4205358;28;21508;-74
2022/07/20 02:57:34;;;;;;;14.80;6.90;;;;;;;16.83;85.82;100415.69;4180329;28;20244;-74
2022/07/20 03:00:06;;;;;;;10.80;6.63;;;;;;;16.88;85.34;100419.53;4199531;28;20261;-74
2022/07/20 03:02:33;;;;;;;13.83;6.40;;;;;;;16.88;85.00;100432.97;4210008;28;20275;-74
2022/07/20 03:04:59;;;;;;;10.57;6.50;;;;;;;16.83;84.86;100435.38;4199922;28;20244;-73
2022/07/20 03:07:26;;;;;;;11.07;6.70;;;;;;;16.94;84.68;100434.06;4222530;28;20326;-73
2022/07/20 03:09:53;;;;;;;12.37;6.77;;;;;;;17.00;84.69;100433.31;4206083;28;20291;-75
2022/07/20 03:12:20;;;;;;;11.10;6.83;;;;;;;17.03;84.22;100441.00;4203813;28;22385;-73
2022/07/20 03:14:47;;;;;;;12.87;6.73;;;;;;;17.00;84.62;100432.50;4186504;28;20237;-73
2022/07/20 03:17:13;;;;;;;13.13;6.53;;;;;;;16.99;84.14;100434.31;4210610;28;21551;-74
2022/07/20 03:19:40;;;;;;;12.27;6.70;;;;;;;16.98;84.42;100446.09;4196227;28;20317;-73
2022/07/20 03:22:07;;;;;;;10.67;6.53;;;;;;;17.11;83.33;100447.28;4210285;28;21028;-72
2022/07/20 03:24:33;;;;;;;12.03;6.53;;;;;;;17.12;84.13;100448.97;4211327;28;20237;-73
2022/07/20 03:27:00;;;;;;;11.77;6.37;;;;;;;17.20;83.14;100444.31;4199150;28;20273;-73
2022/07/20 03:29:27;;;;;;;10.60;6.27;;;;;;;17.25;83.56;100449.94;4221321;28;22872;-74
2022/07/20 03:31:54;;;;;;;12.20;7.10;;;;;;;17.30;83.04;100450.25;4207941;28;20294;-73
2022/07/20 03:34:20;;;;;;;11.60;7.10;;;;;;;17.36;83.48;100439.75;4212821;28;25068;-74
2022/07/20 03:36:48;;;;;;;12.60;6.93;;;;;;;17.39;83.18;100440.19;4213055;28;20244;-73
2022/07/20 03:39:15;;;;;;;15.07;7.00;;;;;;;17.46;82.83;100451.84;4192080;28;20233;-72
2022/07/20 03:41:42;;;;;;;11.80;6.33;;;;;;;17.52;82.36;100444.91;4200299;28;21385;-74
2022/07/20 03:44:08;;;;;;;12.60;6.67;;;;;;;17.68;81.49;100449.22;4202480;28;20241;-73
2022/07/20 03:46:35;;;;;;;12.20;6.60;;;;;;;17.73;81.41;100450.28;4215923;28;20745;-73
2022/07/20 03:49:02;;;;;;;17.80;6.47;;;;;;;17.69;81.00;100456.25;4204300;28;20245;-73
2022/07/20 03:51:28;;;;;;;15.33;8.67;;;;;;;17.82;80.98;100459.13;4197504;28;22006;-72
2022/07/20 03:53:55;;;;;;;18.60;9.77;;;;;;;17.86;82.27;100459.56;4211240;28;20327;-73
2022/07/20 03:56:23;;;;;;;16.83;7.23;;;;;;;17.87;81.71;100462.06;4197285;28;22071;-73
2022/07/20 03:58:49;;;;;;;11.63;6.53;;;;;;;17.98;81.13;100462.56;4225196;28;20529;-75
2022/07/20 04:01:16;;;;;;;13.00;6.53;;;;;;;18.08;80.53;100471.16;4200956;28;21129;-74
2022/07/20 04:03:43;;;;;;;15.93;6.50;;;;;;;18.16;80.18;100467.50;4204796;28;20563;-74
2022/07/20 04:06:09;;;;;;;8.77;5.50;;;;;;;18.27;79.84;100467.81;4200282;28;20267;-75
2022/07/20 04:08:36;;;;;;;11.37;6.57;;;;;;;18.33;80.25;100468.88;4218746;28;22085;-73
2022/07/20 04:11:03;;;;;;;10.23;6.00;;;;;;;18.45;79.43;100479.94;4220262;28;20953;-75
2022/07/20 04:13:29;;;;;;;12.20;6.50;;;;;;;18.53;78.60;100480.66;4201130;28;20580;-74
2022/07/20 04:15:56;;;;;;;12.30;7.00;;;;;;;18.58;77.06;100481.94;4208730;28;21437;-74
2022/07/20 04:18:22;;;;;;;12.83;7.10;;;;;;;18.71;76.63;100484.72;4198160;28;20240;-74
2022/07/20 04:20:49;;;;;;;13.10;6.50;;;;;;;18.80;76.93;100483.56;4218057;28;20392;-75
2022/07/20 04:23:15;;;;;;;13.53;7.03;;;;;;;18.86;75.56;100487.34;4200164;28;20236;-71
2022/07/20 04:25:42;;;;;;;13.13;6.73;;;;;;;19.01;75.14;100493.47;4226266;28;20233;-75
2022/07/20 04:28:08;;;;;;;11.70;6.57;;;;;;;19.14;74.94;100488.09;4203019;28;25514;-72
2022/07/20 04:30:35;;;;;;;11.17;6.33;;;;;;;19.17;74.32;100495.81;4219870;28;20243;-73
2022/07/20 04:33:02;;;;;;;16.30;7.30;;;;;;;19.29;74.71;100498.78;4207609;28;20241;-73
2022/07/20 04:35:29;;;;;;;14.30;7.30;;;;;;;19.31;72.94;100499.38;4198806;28;22067;-73
2022/07/20 04:37:56;;;;;;;17.50;7.33;;;;;;;19.39;73.00;100491.13;4192276;28;21487;-72
2022/07/20 04:40:23;;;;;;;15.13;7.10;;;;;;;19.60;72.54;100492.88;4202819;28;21133;-75
2022/07/20 04:42:49;;;;;;;14.17;7.40;;;;;;;19.61;72.33;100491.81;4206310;28;20335;-73
2022/07/20 04:45:16;;;;;;;10.83;6.97;;;;;;;19.72;72.52;100493.16;4208139;28;20295;-74
2022/07/20 04:47:42;;;;;;;14.63;7.07;;;;;;;19.73;72.02;100488.56;4204835;28;20606;-74
2022/07/20 04:50:09;;;;;;;13.17;7.70;;;;;;;19.72;72.48;100493.16;4199376;28;20241;-73
2022/07/20 04:52:36;;;;;;;11.83;6.70;;;;;;;19.79;71.94;100496.69;4203231;28;20241;-73
2022/07/20 04:55:03;;;;;;;16.57;7.27;;;;;;;19.85;71.83;100488.81;4199146;28;20232;-73
2022/07/20 04:57:29;;;;;;;13.73;7.43;;;;;;;19.91;72.09;100488.81;4196418;28;20244;-73
2022/07/20 04:59:56;;;;;;;15.90;7.30;;;;;;;19.95;71.97;100491.97;4194142;28;20232;-73
2022/07/20 05:02:23;;;;;;;15.30;7.03;;;;;;;20.11;71.75;100496.13;4217950;28;20859;-73
2022/07/20 05:04:49;;;;;;;19.70;7.73;;;;;;;20.13;71.44;100496.75;4185921;28;20283;-75
2022/07/20 05:07:17;;;;;;;15.70;7.40;;;;;;;20.31;71.05;100501.56;4207316;28;20467;-73
2022/07/20 05:09:44;;;;;;;19.57;7.80;;;;;;;20.43;70.22;100499.88;4215383;28;20473;-73
2022/07/20 05:12:10;;;;;;;13.00;7.10;;;;;;;20.55;70.79;100495.50;4218608;28;21385;-73
2022/07/20 05:14:37;;;;;;;16.53;7.97;;;;;;;20.68;69.01;100496.59;4202617;28;20278;-72
2022/07/20 05:17:03;;;;;;;15.37;7.27;;;;;;;20.78;68.84;100503.22;4207173;28;22354;-74
2022/07/20 05:19:30;;;;;;;13.80;7.10;;;;;;;20.81;68.74;100501.97;4207805;28;21727;-73
2022/07/20 05:21:57;;;;;;;15.43;6.67;;;;;;;21.03;68.57;100497.13;4202289;28;20231;-73
2022/07/20 05:24:24;;;;;;;14.70;7.30;;;;;;;21.10;67.43;100505.25;4196036;28;20256;-73
2022/07/20 05:26:50;;;;;;;16.97;7.73;;;;;;;21.36;66.60;100510.56;4214230;28;20304;-73
2022/07/20 05:29:17;;;;;;;12.90;6.97;;;;;;;21.39;67.06;100509.28;4219310;28;21549;-76
2022/07/20 05:31:43;;;;;;;17.90;7.17;;;;;;;21.50;66.08;100514.06;4188834;28;21801;-75
2022/07/20 05:34:10;;;;;;;15.07;7.93;;;;;;;21.61;64.67;100521.53;4215139;28;21137;-75
2022/07/20 05:36:37;;;;;;;16.57;7.60;;;;;;;21.78;63.36;100521.03;4221255;28;20295;-73
2022/07/20 05:39:04;;;;;;;12.83;7.00;;;;;;;21.97;62.44;100524.66;4195256;28;20251;-75
2022/07/20 05:41:31;;;;;;;15.30;6.47;;;;;;;22.40;60.92;100535.66;4186626;28;21528;-74
2022/07/20 05:43:58;;;;;;;16.53;9.17;;;;;;;22.92;59.56;100529.97;4199078;28;20237;-73
2022/07/20 05:46:25;;;;;;;11.80;5.67;;;;;;;23.33;54.53;100539.38;4210149;28;20315;-73
2022/07/20 05:48:51;;;;;;;13.50;5.30;;;;;;;23.94;54.36;100543.84;4205681;28;21714;-74
2022/07/20 05:51:19;;;;;;;16.43;6.03;;;;;;;24.73;52.20;100549.16;4203115;28;20237;-73
2022/07/20 05:53:56;;;;;;;14.20;6.00;;;;;;;25.37;48.06;100559.31;4213811;28;20588;-73
2022/07/20 05:56:23;;;;;;;13.70;6.43;;;;;;;26.11;45.70;100560.28;4199779;28;20232;-73
2022/07/20 05:58:49;;;;;;;13.02;5.63;;;;;;;26.93;44.88;100564.38;4192833;28;20236;-74
2022/07/20 06:01:17;;;;;;;11.57;5.10;;;;;;;27.67;40.38;100570.56;4202121;28;20245;-75
2022/07/20 06:03:43;;;;;;;13.88;4.78;;;;;;;27.69;37.41;100582.09;4194543;28;20588;-74
2022/07/20 06:06:14;;;;;;;16.63;5.82;;;;;;;27.85;36.71;100577.66;4233150;28;20503;-75
2022/07/20 06:08:40;;;;;;;11.75;5.38;;;;;;;28.51;36.31;100581.06;4189925;28;20390;-74
2022/07/20 06:11:27;;;;;;;13.30;4.97;;;;;;;29.02;34.82;100580.63;4211978;28;20232;-74
2022/07/20 06:13:54;;;;;;;11.40;5.00;;;;;;;29.91;33.54;100597.28;4199107;28;21249;-73
2022/07/20 06:16:20;;;;;;;11.60;4.70;;;;;;;30.30;32.29;100600.44;4209288;28;21790;-73
2022/07/20 06:18:47;;;;;;;10.52;5.18;;;;;;;30.93;31.19;100600.19;4193009;28;20228;-73
2022/07/20 06:21:15;;;;;;;11.65;5.10;;;;;;;31.04;30.51;100607.28;4210170;28;20313;-74
2022/07/20 06:23:41;;;;;;;11.20;4.85;;;;;;;31.64;30.12;100620.38;4207141;28;20276;-73
2022/07/20 06:26:08;;;;;;;7.78;4.93;;;;;;;31.68;28.95;100618.69;4200913;28;20334;-74
2022/07/20 06:28:35;;;;;;;10.52;5.13;;;;;;;31.84;29.05;100612.00;4202309;28;26752;-75
2022/07/20 06:31:01;;;;;;;12.57;5.20;;;;;;;32.37;26.52;100615.00;4210886;28;20233;-73
2022/07/20 06:33:28;;;;;;;12.73;5.20;;;;;;;32.83;26.64;100613.00;4200077;28;20238;-74
2022/07/20 06:35:54;;;;;;;12.15;5.43;;;;;;;32.90;27.16;100616.28;4199315;28;20832;-74
2022/07/20 06:38:21;;;;;;;18.05;6.13;;;;;;;33.37;26.40;100625.75;4191777;28;20240;-73
2022/07/20 06:40:48;;;;;;;12.30;5.57;;;;;;;34.73;24.92;100634.41;4205006;28;20378;-72
2022/07/20 06:43:14;;;;;;;15.02;5.63;;;;;;;34.57;24.67;100625.53;4207836;28;20228;-74
2022/07/20 06:45:41;;;;;;;12.60;5.25;;;;;;;34.87;23.12;100626.97;4201964;28;20236;-73
2022/07/20 06:48:08;;;;;;;14.40;5.32;;;;;;;35.55;22.16;100627.38;4187148;28;20233;-74
2022/07/20 06:50:34;;;;;;;10.90;4.60;;;;;;;36.39;20.95;100634.44;4205852;28;20241;-74
2022/07/20 06:53:01;;;;;;;7.88;4.30;;;;;;;37.41;20.52;100628.22;4203831;28;20232;-74
2022/07/20 06:55:28;;;;;;;17.10;4.63;;;;;;;36.18;20.88;100619.44;4198802;28;22923;-75
2022/07/20 06:57:54;;;;;;;10.38;4.07;;;;;;;36.03;20.66;100620.56;4221142;28;21823;-74
2022/07/20 07:00:21;;;;;;;11.85;3.80;;;;;;;36.63;20.20;100627.81;4208438;28;20705;-74
2022/07/20 07:02:47;;;;;;;12.27;4.50;;;;;;;37.27;19.46;100633.06;4196034;28;20598;-73
2022/07/20 07:05:14;;;;;;;8.35;4.68;;;;;;;37.42;18.92;100635.41;4208096;28;20231;-74
2022/07/20 07:07:41;;;;;;;10.75;4.70;;;;;;;37.76;18.95;100637.50;4209085;28;20298;-77
2022/07/20 07:10:08;;;;;;;14.27;4.75;;;;;;;37.28;19.36;100627.19;4204681;28;20322;-75
2022/07/20 07:12:34;;;;;;;11.68;4.40;;;;;;;37.30;19.40;100632.41;4213927;28;20594;-74
2022/07/20 07:15:01;;;;;;;10.80;4.40;;;;;;;36.65;19.26;100633.84;4216593;28;22803;-74
2022/07/20 07:17:30;;;;;;;10.05;3.80;;;;;;;36.39;19.41;100628.91;4210781;28;20884;-75
2022/07/20 07:19:58;;;;;;;11.55;4.00;;;;;;;36.87;19.29;100628.25;4204735;28;20237;-75
2022/07/20 07:22:26;;;;;;;14.13;3.88;;;;;;;37.61;18.29;100635.19;4217603;28;20233;-74
2022/07/20 07:24:54;;;;;;;9.15;3.78;;;;;;;38.07;16.97;100635.78;4220100;28;25991;-74
2022/07/20 07:27:20;;;;;;;9.50;3.75;;;;;;;37.67;17.63;100633.88;4205320;28;20236;-74
2022/07/20 07:29:47;;;;;;;9.05;4.20;;;;;;;37.69;17.68;100634.38;4208681;28;20343;-75
2022/07/20 07:32:14;;;;;;;9.65;4.40;;;;;;;37.35;18.96;100629.53;4208337;28;20235;-74
2022/07/20 07:34:41;;;;;;;13.32;5.43;;;;;;;36.51;19.93;100629.16;4228003;28;20252;-74
2022/07/20 07:37:08;;;;;;;10.95;4.35;;;;;;;35.66;21.26;100617.78;4202129;28;20233;-76
2022/07/20 07:39:34;;;;;;;14.23;4.43;;;;;;;34.79;22.17;100618.56;4204619;28;21483;-74
2022/07/20 07:42:01;;;;;;;11.43;4.13;;;;;;;33.56;23.84;100607.31;4208130;28;20237;-74
2022/07/20 07:44:35;;;;;;;8.80;3.95;;;;;;;32.09;25.86;100596.50;4199469;28;20861;-75
2022/07/20 07:47:03;;;;;;;13.82;4.60;;;;;;;32.12;25.91;100596.75;4214184;28;21764;-73
2022/07/20 07:49:30;;;;;;;10.63;4.50;;;;;;;31.57;26.95;100587.66;4200536;28;21462;-74
2022/07/20 07:51:57;;;;;;;15.85;4.47;;;;;;;31.41;26.93;100581.38;4216699;28;20719;-76
2022/07/20 07:54:23;;;;;;;10.32;4.78;;;;;;;30.75;27.50;100573.25;4208612;28;20266;-73
2022/07/20 07:56:50;;;;;;;17.98;4.18;;;;;;;31.16;27.08;100585.00;4202405;28;20598;-77
2022/07/20 07:59:17;;;;;;;10.98;4.30;;;;;;;30.80;28.09;100576.78;4236370;28;20264;-76
2022/07/20 08:02:00;;;;;;;12.38;4.30;;;;;;;30.82;28.70;100571.03;4217029;28;20243;-74
2022/07/20 08:04:27;;;;;;;9.07;4.35;;;;;;;31.41;26.57;100573.13;4204198;28;20236;-76
2022/07/20 08:06:54;;;;;;;10.02;4.15;;;;;;;31.36;26.53;100578.63;4220779;28;20247;-75
2022/07/20 08:09:20;;;;;;;10.02;4.35;;;;;;;31.38;27.59;100581.09;4210937;28;20612;-76
2022/07/20 08:11:47;;;;;;;9.75;4.28;;;;;;;30.68;28.79;100571.59;4229670;28;20242;-75
2022/07/20 08:14:14;;;;;;;8.00;4.25;;;;;;;30.52;28.60;100558.13;4227667;28;21084;-75
2022/07/20 08:16:40;;;;;;;9.02;3.60;;;;;;;30.35;26.88;100567.47;4203831;28;21743;-78
2022/07/20 08:19:07;;;;;;;9.90;4.28;;;;;;;29.94;28.02;100559.13;4200774;28;21141;-75
2022/07/20 08:21:34;;;;;;;9.18;3.85;;;;;;;30.23;28.02;100564.16;4244792;28;20860;-75
2022/07/20 08:24:03;;;;;;;10.43;4.22;;;;;;;30.62;27.53;100563.63;4209409;28;20232;-75
2022/07/20 08:26:33;;;;;;;12.45;4.68;;;;;;;31.06;27.30;100563.03;4202009;28;20315;-75
2022/07/20 08:29:00;;;;;;;6.88;3.97;;;;;;;30.54;28.34;100562.25;4226843;28;20238;-73
2022/07/20 08:31:26;;;;;;;13.02;4.63;;;;;;;30.78;28.84;100561.69;4231662;28;23005;-75
2022/07/20 08:33:54;;;;;;;13.23;5.50;;;;;;;30.57;29.04;100561.69;4226873;28;20921;-75
2022/07/20 08:36:21;;;;;;;13.27;4.82;;;;;;;30.91;28.83;100566.66;4233860;28;20237;-76
2022/07/20 08:38:47;;;;;;;15.25;5.60;;;;;;;31.16;28.12;100564.94;4217532;28;20236;-76
2022/07/20 08:41:15;;;;;;;12.55;5.05;;;;;;;30.84;29.09;100560.63;4247127;28;20235;-76
2022/07/20 08:43:42;;;;;;;13.50;5.53;;;;;;;30.90;29.72;100554.00;4232183;28;22221;-75
2022/07/20 08:46:08;;;;;;;21.08;5.68;;;;;;;29.90;31.75;100540.75;4230395;28;20428;-76
2022/07/20 08:48:35;;;;;;;22.23;5.45;;;;;;;29.79;30.95;100535.25;4226192;28;20485;-75
2022/07/20 08:51:02;;;;;;;20.60;6.03;;;;;;;29.83;31.04;100541.03;4214522;28;20256;-75
2022/07/20 08:53:29;;;;;;;13.35;6.35;;;;;;;29.46;31.03;100537.31;4233745;28;20247;-76
2022/07/20 08:55:59;;;;;;;11.25;4.45;;;;;;;29.45;30.44;100541.16;4221196;28;20792;-75
2022/07/20 08:58:26;;;;;;;9.25;5.30;;;;;;;29.92;30.21;100549.53;4223920;28;21773;-77
2022/07/20 09:00:52;;;;;;;12.82;4.88;;;;;;;29.89;30.82;100539.94;4204377;28;21237;-76
2022/07/20 09:03:19;;;;;;;9.15;4.28;;;;;;;29.72;30.26;100544.84;4216002;28;20240;-74
2022/07/20 09:06:01;;;;;;;11.25;4.57;;;;;;;29.52;31.40;100545.53;4224150;28;20246;-75
2022/07/20 09:08:28;;;;;;;8.65;4.30;;;;;;;29.64;31.03;100548.88;4225462;28;21152;-75
2022/07/20 09:10:59;;;;;;;12.23;4.07;;;;;;;29.50;31.12;100543.09;4224542;28;21366;-74
2022/07/20 09:13:31;;;;;;;10.25;4.15;;;;;;;29.43;32.15;100547.97;4193055;28;21360;-75
2022/07/20 09:15:59;;;;;;;8.73;4.10;;;;;;;29.54;33.25;100544.19;4245381;28;22022;-75
2022/07/20 09:18:30;;;;;;;10.35;3.97;;;;;;;29.44;32.97;100544.97;4217372;28;20237;-75
2022/07/20 09:20:59;;;;;;;9.55;4.80;;;;;;;29.53;32.21;100541.72;4204752;28;22389;-73
2022/07/20 09:23:31;;;;;;;7.88;4.18;;;;;;;29.70;31.30;100542.34;4231736;28;20358;-75
2022/07/20 09:26:04;;;;;;;8.95;3.90;;;;;;;29.51;32.01;100539.25;4194555;28;22142;-75
2022/07/20 09:28:38;;;;;;;7.75;3.80;;;;;;;29.56;32.42;100541.19;4195895;28;20296;-75
2022/07/20 09:31:18;;;;;;;8.13;3.83;;;;;;;29.92;31.83;100544.03;4209641;28;20289;-74
2022/07/20 09:34:07;;;;;;;12.55;6.18;;;;;;;29.94;31.46;100542.66;4210340;28;22127;-75
2022/07/20 09:36:37;;;;;;;6.43;3.92;;;;;;;30.05;30.68;100543.53;4208287;28;22125;-74
2022/07/20 09:39:14;;;;;;;6.72;4.18;;;;;;;29.70;32.54;100542.34;4201571;28;20236;-74
2022/07/20 09:42:01;;;;;;;6.32;4.15;;;;;;;29.57;33.15;100542.81;4204668;28;23669;-75
2022/07/20 09:44:29;;;;;;;9.40;4.13;;;;;;;29.38;33.89;100535.06;4208084;28;20237;-74
2022/07/20 09:46:57;;;;;;;9.40;4.25;;;;;;;29.23;33.87;100535.00;4213834;28;20229;-74
2022/07/20 09:49:32;;;;;;;6.00;3.90;;;;;;;29.17;35.40;100531.44;4196841;28;20232;-74
2022/07/20 09:52:00;;;;;;;7.38;4.30;;;;;;;28.95;35.38;100531.53;4232864;28;22369;-73
2022/07/20 09:54:47;;;;;;;6.97;3.88;;;;;;;28.58;34.79;100515.13;4206356;28;22939;-74
2022/07/20 09:57:15;;;;;;;6.70;3.38;;;;;;;28.90;32.78;100517.81;4205738;28;20848;-74
2022/07/20 09:59:46;;;;;;;7.38;3.80;;;;;;;29.14;33.40;100517.44;4205214;28;20245;-74
2022/07/20 10:02:13;;;;;;;8.75;4.05;;;;;;;28.88;35.00;100525.47;4205585;28;20241;-74
2022/07/20 10:04:40;;;;;;;5.97;3.83;;;;;;;28.65;35.87;100517.66;4202315;28;20321;-74
2022/07/20 10:07:07;;;;;;;8.73;3.60;;;;;;;28.73;32.82;100519.88;4229277;28;20738;-74
2022/07/20 10:09:36;;;;;;;6.43;3.38;;;;;;;28.84;33.45;100516.13;4199712;28;23039;-74
2022/07/20 10:12:03;;;;;;;4.90;3.00;;;;;;;28.88;32.92;100517.25;4193899;28;20239;-76
2022/07/20 10:14:30;;;;;;;7.65;3.92;;;;;;;28.78;32.66;100519.94;4216266;28;21030;-76
2022/07/20 10:16:57;;;;;;;8.65;3.85;;;;;;;28.86;32.41;100516.69;4208232;28;20240;-74
2022/07/20 10:19:46;;;;;;;6.63;3.53;;;;;;;28.88;33.55;100517.25;4202960;28;23598;-74
2022/07/20 10:22:14;;;;;;;7.75;3.22;;;;;;;29.04;31.80;100519.00;4211724;28;20249;-74
2022/07/20 10:24:43;;;;;;;6.50;3.17;;;;;;;29.05;32.94;100520.63;4219611;28;21112;-74
2022/07/20 10:27:13;;;;;;;6.40;3.30;;;;;;;28.89;32.33;100518.06;4205121;28;20315;-74
2022/07/20 10:29:46;;;;;;;6.68;3.40;;;;;;;28.77;32.71;100513.63;4206935;28;20468;-76
2022/07/20 10:32:21;;;;;;;7.20;3.47;;;;;;;28.78;32.92;100523.50;4211592;28;20233;-75
2022/07/20 10:34:56;;;;;;;5.82;3.47;;;;;;;28.95;33.04;100526.06;4210059;28;20638;-75
2022/07/20 10:37:24;;;;;;;8.35;3.58;;;;;;;29.01;32.04;100525.00;4218748;28;20239;-74
2022/07/20 10:39:57;;;;;;;13.15;3.55;;;;;;;29.14;32.50;100520.97;4208463;28;20379;-74
2022/07/20 10:42:34;;;;;;;11.43;3.65;;;;;;;29.35;33.03;100521.91;4217666;28;20241;-75
2022/07/20 10:45:19;;;;;;;5.83;3.20;;;;;;;29.49;32.50;100518.66;4212060;28;20793;-75
2022/07/20 10:47:46;;;;;;;4.63;3.17;;;;;;;29.41;31.93;100522.75;4219480;28;20524;-74
2022/07/20 10:50:33;;;;;;;4.80;3.10;;;;;;;29.28;32.79;100518.59;4206330;28;20609;-75
2022/07/20 10:53:23;;;;;;;7.75;3.65;;;;;;;29.20;34.38;100517.19;4210151;28;20232;-75
2022/07/20 10:55:55;;;;;;;5.65;3.47;;;;;;;28.75;34.57;100509.50;4197337;28;20332;-74
2022/07/20 10:58:27;;;;;;;5.88;3.50;;;;;;;29.00;34.79;100512.38;4220172;28;20234;-75
2022/07/20 11:00:57;;;;;;;4.55;2.95;;;;;;;29.30;33.64;100516.41;4228126;28;20425;-72
2022/07/20 11:03:42;;;;;;;5.88;3.00;;;;;;;29.51;33.12;100516.47;4235472;28;21493;-75
2022/07/20 11:06:28;;;;;;;7.22;3.50;;;;;;;29.24;31.85;100506.50;4205750;28;20264;-74
2022/07/20 11:08:57;;;;;;;4.50;2.85;;;;;;;29.33;32.51;100504.06;4200045;28;22295;-74
2022/07/20 11:11:30;;;;;;;5.90;3.28;;;;;;;29.69;31.48;100513.28;4203952;28;20232;-74
2022/07/20 11:13:57;;;;;;;6.55;3.10;;;;;;;29.95;32.20;100505.91;4205377;28;20310;-74
2022/07/20 11:16:25;;;;;;;5.38;2.65;;;;;;;30.27;30.61;100510.34;4194354;28;21419;-74
2022/07/20 11:18:56;;;;;;;9.60;2.78;;;;;;;30.31;30.78;100503.22;4212798;28;20808;-75
2022/07/20 11:21:40;;;;;;;7.20;2.88;;;;;;;30.24;30.80;100508.13;4207734;28;20299;-74
2022/07/20 11:24:28;;;;;;;6.97;3.30;;;;;;;30.14;30.35;100511.69;4202522;28;21229;-75
2022/07/20 11:26:55;;;;;;;6.05;2.80;;;;;;;29.99;31.29;100514.41;4222669;28;25620;-76